createdAt,value
2019-05-11T00:02:42.972Z,97.83
2019-05-11T00:05:49.505Z,99.12
2019-05-11T00:08:56.392Z,99.21
2019-05-11T00:12:03.005Z,99.91
2019-05-11T00:15:10.231Z,99.34
2019-05-11T00:18:17.070Z,98.46
2019-05-11T00:21:23.674Z,99.30
2019-05-11T00:24:30.192Z,98.63
2019-05-11T00:27:37.048Z,98.74
2019-05-11T00:30:43.662Z,99.41
2019-05-11T00:33:50.195Z,99.51
2019-05-11T00:36:56.965Z,98.29
2019-05-11T00:40:13.950Z,98.09
2019-05-11T00:43:12.247Z,98.89
2019-05-11T00:46:18.822Z,99.89
2019-05-11T00:49:25.395Z,99.79
2019-05-11T00:52:34.667Z,99.95
2019-05-11T00:55:41.283Z,99.52
2019-05-11T00:58:50.807Z,98.32
2019-05-11T01:01:57.148Z,98.28
2019-05-11T01:05:03.716Z,99.72
2019-05-11T01:08:10.288Z,99.63
2019-05-11T01:11:16.932Z,98.74
2019-05-11T01:14:23.425Z,97.46
2019-05-11T01:17:29.957Z,96.83
2019-05-11T01:20:36.466Z,96.09
2019-05-11T01:23:43.327Z,96.53
2019-05-11T01:26:49.819Z,96.51
2019-05-11T01:29:56.379Z,95.64
2019-05-11T01:33:02.993Z,96.17
2019-05-11T01:36:09.470Z,95.83
2019-05-11T01:39:15.949Z,95.41
2019-05-11T01:42:22.703Z,94.27
2019-05-11T01:45:29.214Z,94.66
2019-05-11T01:48:35.634Z,94.86
2019-05-11T01:51:42.239Z,95.67
2019-05-11T01:54:48.739Z,97.13
2019-05-11T01:57:55.341Z,96.66
2019-05-11T02:01:02.003Z,97.31
2019-05-11T02:04:10.087Z,95.80
2019-05-11T02:07:16.723Z,96.24
2019-05-11T02:10:23.159Z,92.75
2019-05-11T02:13:29.598Z,93.85
2019-05-11T02:16:36.194Z,92.30
2019-05-11T02:19:42.698Z,95.61
2019-05-11T02:22:49.351Z,98.41
2019-05-11T02:25:56.089Z,98.36
2019-05-11T02:29:02.640Z,96.91
2019-05-11T02:32:09.080Z,96.27
2019-05-11T02:35:16.042Z,95.98
2019-05-11T02:38:22.490Z,96.59
2019-05-11T02:41:36.423Z,95.10
2019-05-11T02:44:37.196Z,94.82
2019-05-11T02:47:43.818Z,94.20
2019-05-11T02:50:53.248Z,93.84
2019-05-11T02:54:02.286Z,93.73
2019-05-11T02:57:09.050Z,91.37
2019-05-11T03:00:18.684Z,91.94
2019-05-11T03:03:25.294Z,93.66
2019-05-11T03:06:32.220Z,92.98
2019-05-11T03:09:38.851Z,93.23
2019-05-11T03:12:45.778Z,93.63
2019-05-11T03:15:52.433Z,94.28
2019-05-11T03:18:59.436Z,94.96
2019-05-11T03:22:06.128Z,94.08
2019-05-11T03:25:13.183Z,94.46
2019-05-11T03:28:19.863Z,93.22
2019-05-11T03:31:26.381Z,93.46
2019-05-11T03:34:32.874Z,93.80
2019-05-11T03:37:39.398Z,93.62
2019-05-11T03:40:46.023Z,94.73
2019-05-11T03:43:52.394Z,94.56
2019-05-11T03:46:59.041Z,94.61
2019-05-11T03:50:05.604Z,94.30
2019-05-11T03:53:12.389Z,94.30
2019-05-11T03:56:18.884Z,94.49
2019-05-11T03:59:25.414Z,94.49
2019-05-11T04:02:32.048Z,94.71
2019-05-11T04:05:38.628Z,94.33
2019-05-11T04:08:46.306Z,93.75
2019-05-11T04:11:53.113Z,94.43
2019-05-11T04:14:59.658Z,92.76
2019-05-11T04:18:06.346Z,94.22
2019-05-11T04:21:13.258Z,95.46
2019-05-11T04:24:19.901Z,95.72
2019-05-11T04:27:26.419Z,94.56
2019-05-11T04:30:33.057Z,93.05
2019-05-11T04:33:39.632Z,92.57
2019-05-11T04:36:46.236Z,94.11
2019-05-11T04:39:54.434Z,93.79
2019-05-11T04:43:01.009Z,93.80
2019-05-11T04:46:07.587Z,93.78
2019-05-11T04:49:15.080Z,92.93
2019-05-11T04:52:21.646Z,93.05
2019-05-11T04:55:28.318Z,92.29
2019-05-11T04:58:35.373Z,93.38
2019-05-11T05:01:42.217Z,94.75
2019-05-11T05:04:48.931Z,93.25
2019-05-11T05:08:08.585Z,94.50
2019-05-11T05:11:04.231Z,93.62
2019-05-11T05:14:10.870Z,94.09
2019-05-11T05:17:17.309Z,95.18
2019-05-11T05:20:23.905Z,95.22
2019-05-11T05:23:30.387Z,95.20
2019-05-11T05:26:36.873Z,95.02
2019-05-11T05:29:43.479Z,93.26
2019-05-11T05:32:50.179Z,93.03
2019-05-11T05:35:56.581Z,92.36
2019-05-11T05:39:04.001Z,91.22
2019-05-11T05:42:10.621Z,92.78
2019-05-11T05:45:17.369Z,94.54
2019-05-11T05:48:23.908Z,93.69
2019-05-11T05:51:30.681Z,93.24
2019-05-11T05:54:37.227Z,93.85
2019-05-11T05:57:43.628Z,93.50
2019-05-11T06:00:50.275Z,92.81
2019-05-11T06:03:56.894Z,92.89
2019-05-11T06:07:03.438Z,91.59
2019-05-11T06:10:10.311Z,92.59
2019-05-11T06:13:17.185Z,93.25
2019-05-11T06:16:23.786Z,93.39
2019-05-11T06:19:30.509Z,93.67
2019-05-11T06:22:37.059Z,90.30
2019-05-11T06:25:43.599Z,95.67
2019-05-11T06:28:50.717Z,94.20
2019-05-11T06:31:57.268Z,94.50
2019-05-11T06:35:04.150Z,96.90
2019-05-11T06:38:10.933Z,99.27
2019-05-11T06:41:18.583Z,99.15
2019-05-11T06:44:26.221Z,98.01
2019-05-11T06:47:32.893Z,100.00
2019-05-11T06:50:39.525Z,100.00
2019-05-11T06:53:46.125Z,98.95
2019-05-11T06:56:52.513Z,100.00
2019-05-11T06:59:59.005Z,100.00
2019-05-11T07:03:05.529Z,99.92
2019-05-11T07:06:11.956Z,96.26
2019-05-11T07:09:18.397Z,98.56
2019-05-11T07:12:27.652Z,99.29
2019-05-11T07:15:34.148Z,100.00
2019-05-11T07:18:40.634Z,99.87
2019-05-11T07:21:47.131Z,100.00
2019-05-11T07:24:53.583Z,100.00
2019-05-11T07:28:00.098Z,96.40
2019-05-11T07:31:06.857Z,98.09
2019-05-11T07:34:13.326Z,99.31
2019-05-11T07:37:19.843Z,100.00
2019-05-11T07:40:27.936Z,100.00
2019-05-11T07:43:51.669Z,100.00
2019-05-11T07:46:58.804Z,98.97
2019-05-11T07:50:08.243Z,99.38
2019-05-11T07:53:14.930Z,100.00
2019-05-11T07:56:21.423Z,100.00
2019-05-11T07:59:28.965Z,100.00
2019-05-11T08:02:35.598Z,99.86
2019-05-11T08:05:42.089Z,100.00
2019-05-11T08:08:49.167Z,99.43
2019-05-11T08:11:58.217Z,97.67
2019-05-11T08:15:12.441Z,98.71
2019-05-11T08:18:18.909Z,98.23
2019-05-11T08:21:25.641Z,97.64
2019-05-11T08:24:32.275Z,98.17
2019-05-11T08:27:38.852Z,99.62
2019-05-11T08:30:45.674Z,99.63
2019-05-11T08:33:52.270Z,98.35
2019-05-11T08:37:01.613Z,98.03
2019-05-11T08:40:08.235Z,98.09
2019-05-11T08:43:17.817Z,99.09
2019-05-11T08:46:23.825Z,97.61
2019-05-11T08:49:30.484Z,98.43
2019-05-11T08:52:38.612Z,97.74
2019-05-11T08:55:44.983Z,100.00
2019-05-11T08:58:54.961Z,100.00
2019-05-11T09:01:59.663Z,100.00
2019-05-11T09:05:08.190Z,100.00
2019-05-11T09:08:15.773Z,100.00
2019-05-11T09:11:22.210Z,100.00
2019-05-11T09:14:28.681Z,100.00
2019-05-11T09:17:35.095Z,99.21
2019-05-11T09:20:42.649Z,99.16
2019-05-11T09:23:49.079Z,99.86
2019-05-11T09:26:55.561Z,99.64
2019-05-11T09:30:02.338Z,99.58
2019-05-11T09:33:08.960Z,98.68
2019-05-11T09:36:17.803Z,98.80
2019-05-11T09:39:23.821Z,98.51
2019-05-11T09:42:30.403Z,97.17
2019-05-11T09:45:45.829Z,97.46
2019-05-11T09:48:45.056Z,97.97
2019-05-11T09:51:52.796Z,97.40
2019-05-11T09:54:59.534Z,98.18
2019-05-11T09:58:48.274Z,97.50
2019-05-11T10:01:54.670Z,97.15
2019-05-11T10:05:01.125Z,99.19
2019-05-11T10:08:07.983Z,99.49
2019-05-11T10:11:14.661Z,98.50
2019-05-11T10:14:21.323Z,98.55
2019-05-11T10:17:28.798Z,98.55
2019-05-11T10:20:38.912Z,97.36
2019-05-11T10:23:45.614Z,97.42
2019-05-11T10:26:52.151Z,96.48
2019-05-11T10:29:59.038Z,96.58
2019-05-11T10:33:05.559Z,97.08
2019-05-11T10:36:12.244Z,97.85
2019-05-11T10:39:18.905Z,97.50
2019-05-11T10:42:25.360Z,98.98
2019-05-11T10:45:31.919Z,98.31
2019-05-11T10:48:39.011Z,98.91
2019-05-11T10:51:45.605Z,98.76
2019-05-11T10:54:52.055Z,97.03
2019-05-11T10:57:58.577Z,97.40
2019-05-11T11:01:05.039Z,97.90
2019-05-11T11:04:11.637Z,98.60
2019-05-11T11:07:19.502Z,96.67
2019-05-11T11:10:28.436Z,98.16
2019-05-11T11:13:34.367Z,99.68
2019-05-11T11:16:42.979Z,98.23
2019-05-11T11:19:49.081Z,97.65
2019-05-11T11:22:55.540Z,98.61
2019-05-11T11:26:02.471Z,98.17
2019-05-11T11:29:09.003Z,97.55
2019-05-11T11:32:15.480Z,97.32
2019-05-11T11:35:21.982Z,97.94
2019-05-11T11:38:28.760Z,95.87
2019-05-11T11:41:35.313Z,95.09
2019-05-11T11:44:41.875Z,92.33
2019-05-11T11:47:49.409Z,94.55
2019-05-11T11:50:58.353Z,96.48
2019-05-11T11:54:04.733Z,96.17
2019-05-11T11:57:11.278Z,92.01
2019-05-11T12:00:18.545Z,93.46
2019-05-11T12:03:24.986Z,93.93
2019-05-11T12:06:38.376Z,92.50
2019-05-11T12:09:44.746Z,91.91
2019-05-11T12:12:51.283Z,94.36
2019-05-11T12:15:58.468Z,91.09
2019-05-11T12:19:05.443Z,91.99
2019-05-11T12:22:11.882Z,90.85
2019-05-11T12:25:18.856Z,92.20
2019-05-11T12:28:27.640Z,92.85
2019-05-11T12:31:34.364Z,92.37
2019-05-11T12:34:40.804Z,92.15
2019-05-11T12:37:48.451Z,92.14
2019-05-11T12:40:55.235Z,93.07
2019-05-11T12:44:01.753Z,93.94
2019-05-11T12:47:21.056Z,93.23
2019-05-11T12:50:18.628Z,93.66
2019-05-11T12:53:25.307Z,92.62
2019-05-11T12:56:31.858Z,92.79
2019-05-11T12:59:38.337Z,94.00
2019-05-11T13:02:44.951Z,94.91
2019-05-11T13:05:51.309Z,96.40
2019-05-11T13:08:58.750Z,96.32
2019-05-11T13:12:05.549Z,97.41
2019-05-11T13:15:14.091Z,99.11
2019-05-11T13:18:22.917Z,99.33
2019-05-11T13:21:29.383Z,98.32
2019-05-11T13:24:35.877Z,98.56
2019-05-11T13:27:42.318Z,98.42
2019-05-11T13:30:49.608Z,97.98
2019-05-11T13:33:58.343Z,96.25
2019-05-11T13:37:04.233Z,97.36
2019-05-11T13:40:11.069Z,96.60
2019-05-11T13:43:18.881Z,94.36
2019-05-11T13:46:28.291Z,95.89
2019-05-11T13:49:37.855Z,94.04
2019-05-11T13:52:44.443Z,94.55
2019-05-11T13:55:50.999Z,94.37
2019-05-11T13:59:07.447Z,93.43
2019-05-11T14:02:13.948Z,91.58
2019-05-11T14:05:20.344Z,90.90
2019-05-11T14:08:27.785Z,91.12
2019-05-11T14:11:34.380Z,90.62
2019-05-11T14:14:40.975Z,91.82
2019-05-11T14:17:48.557Z,89.95
2019-05-11T14:20:55.367Z,88.70
2019-05-11T14:24:01.969Z,89.90
2019-05-11T14:27:08.676Z,88.84
2019-05-11T14:30:15.941Z,87.94
2019-05-11T14:33:23.643Z,84.93
2019-05-11T14:36:30.224Z,81.91
2019-05-11T14:39:38.354Z,81.83
2019-05-11T14:42:45.050Z,83.73
2019-05-11T14:45:51.600Z,85.04
2019-05-11T14:48:59.532Z,85.35
2019-05-11T14:52:08.078Z,83.96
2019-05-11T14:55:14.481Z,87.73
2019-05-11T14:58:20.931Z,88.73
2019-05-11T15:01:28.707Z,88.41
2019-05-11T15:04:37.792Z,88.93
2019-05-11T15:07:43.627Z,87.62
2019-05-11T15:10:50.107Z,87.35
2019-05-11T15:13:57.547Z,86.47
2019-05-11T15:17:04.358Z,85.79
2019-05-11T15:20:12.757Z,86.24
2019-05-11T15:23:19.272Z,85.63
2019-05-11T15:26:27.766Z,85.93
2019-05-11T15:29:34.171Z,85.87
2019-05-11T15:32:40.911Z,85.93
2019-05-11T15:35:48.435Z,87.37
2019-05-11T15:38:55.066Z,87.44
2019-05-11T15:42:10.345Z,86.95
2019-05-11T15:45:10.663Z,86.55
2019-05-11T15:48:18.671Z,86.65
2019-05-11T15:51:25.404Z,86.19
2019-05-11T15:54:31.778Z,85.88
2019-05-11T15:57:38.732Z,86.51
2019-05-11T16:00:45.149Z,86.97
2019-05-11T16:03:51.735Z,86.82
2019-05-11T16:07:01.004Z,87.21
2019-05-11T16:10:08.969Z,87.02
2019-05-11T16:13:17.898Z,88.22
2019-05-11T16:16:23.524Z,88.90
2019-05-11T16:19:30.059Z,88.81
2019-05-11T16:22:38.460Z,88.12
2019-05-11T16:25:44.579Z,89.02
2019-05-11T16:28:51.215Z,88.71
2019-05-11T16:31:58.076Z,90.03
2019-05-11T16:35:05.467Z,90.05
2019-05-11T16:38:13.748Z,89.38
2019-05-11T16:41:21.151Z,89.29
2019-05-11T16:44:27.718Z,90.38
2019-05-11T16:47:34.167Z,90.47
2019-05-11T16:50:40.605Z,90.63
2019-05-11T16:53:48.057Z,90.43
2019-05-11T16:56:54.674Z,90.46
2019-05-11T17:00:01.184Z,91.17
2019-05-11T17:03:07.723Z,91.69
2019-05-11T17:06:14.216Z,91.67
2019-05-11T17:09:20.670Z,92.55
2019-05-11T17:12:28.647Z,93.13
2019-05-11T17:15:35.159Z,93.28
2019-05-11T17:18:41.694Z,94.14
2019-05-11T17:21:48.293Z,94.05
2019-05-11T17:24:54.885Z,93.75
2019-05-11T17:28:02.246Z,94.26
2019-05-11T17:31:08.770Z,94.40
2019-05-11T17:34:20.030Z,94.69
2019-05-11T17:37:23.460Z,95.18
2019-05-11T17:40:30.238Z,95.58
2019-05-11T17:43:38.612Z,95.43
2019-05-11T17:46:44.904Z,95.36
2019-05-11T17:49:59.587Z,94.59
2019-05-11T17:52:59.704Z,95.92
2019-05-11T17:56:06.268Z,96.36
2019-05-11T17:59:12.774Z,96.93
2019-05-11T18:02:19.428Z,97.47
2019-05-11T18:05:25.869Z,97.80
2019-05-11T18:08:32.424Z,98.92
2019-05-11T18:11:40.410Z,99.70
2019-05-11T18:14:48.217Z,99.97
2019-05-11T18:17:55.083Z,100.00
2019-05-11T18:21:01.537Z,100.00
2019-05-11T18:24:09.174Z,99.42
2019-05-11T18:27:15.836Z,100.00
2019-05-11T18:30:22.454Z,100.00
2019-05-11T18:33:30.073Z,100.00
2019-05-11T18:36:38.269Z,100.00
2019-05-11T18:39:52.778Z,100.00
2019-05-11T18:43:00.419Z,100.00
2019-05-11T18:46:08.608Z,100.00
2019-05-11T18:49:15.060Z,100.00
2019-05-11T18:52:21.515Z,100.00
2019-05-11T18:55:28.251Z,100.00
2019-05-11T18:58:34.694Z,100.00
2019-05-11T19:01:41.121Z,100.00
2019-05-11T19:04:48.806Z,100.00
2019-05-11T19:07:55.400Z,100.00
2019-05-11T19:11:01.824Z,100.00
2019-05-11T19:14:09.513Z,100.00
2019-05-11T19:17:18.004Z,100.00
2019-05-11T19:20:24.367Z,100.00
2019-05-11T19:23:30.923Z,100.00
2019-05-11T19:26:37.556Z,100.00
2019-05-11T19:29:44.317Z,100.00
2019-05-11T19:32:50.907Z,100.00
2019-05-11T19:35:58.667Z,100.00
2019-05-11T19:39:08.881Z,100.00
2019-05-11T19:42:17.877Z,100.00
2019-05-11T19:45:25.120Z,100.00
2019-05-11T19:48:31.883Z,100.00
2019-05-11T19:51:42.310Z,100.00
2019-05-11T19:54:48.626Z,100.00
2019-05-11T19:57:54.754Z,100.00
2019-05-11T20:01:01.256Z,100.00
2019-05-11T20:04:38.772Z,100.00
2019-05-11T20:07:45.334Z,100.00
2019-05-11T20:10:53.648Z,100.00
2019-05-11T20:14:01.250Z,100.00
2019-05-11T20:17:08.909Z,100.00
2019-05-11T20:20:18.086Z,100.00
2019-05-11T20:23:24.073Z,100.00
2019-05-11T20:26:30.639Z,100.00
2019-05-11T20:29:38.432Z,100.00
2019-05-11T20:32:45.122Z,100.00
2019-05-11T20:35:51.651Z,100.00
2019-05-11T20:38:58.066Z,100.00
2019-05-11T20:42:04.759Z,100.00
2019-05-11T20:45:11.561Z,100.00
2019-05-11T20:48:18.597Z,100.00
2019-05-11T20:51:36.245Z,100.00
2019-05-11T20:54:33.444Z,100.00
2019-05-11T20:57:39.937Z,100.00
2019-05-11T21:00:48.456Z,100.00
2019-05-11T21:03:54.816Z,100.00
2019-05-11T21:07:01.269Z,100.00
2019-05-11T21:10:08.929Z,100.00
2019-05-11T21:13:17.733Z,100.00
2019-05-11T21:16:23.562Z,100.00
2019-05-11T21:19:30.016Z,100.00
2019-05-11T21:22:40.057Z,100.00
2019-05-11T21:25:44.539Z,100.00
2019-05-11T21:28:51.031Z,100.00
2019-05-11T21:31:58.906Z,100.00
2019-05-11T21:35:08.500Z,100.00
2019-05-11T21:38:14.316Z,100.00
2019-05-11T21:41:20.902Z,100.00
2019-05-11T21:44:27.843Z,100.00
2019-05-11T21:47:34.471Z,100.00
2019-05-11T21:50:41.217Z,100.00
2019-05-11T21:53:48.665Z,100.00
2019-05-11T21:56:57.410Z,100.00
2019-05-11T22:00:03.392Z,100.00
2019-05-11T22:03:10.586Z,100.00
2019-05-11T22:06:18.101Z,100.00
2019-05-11T22:09:24.657Z,100.00
2019-05-11T22:12:31.195Z,100.00
2019-05-11T22:15:38.565Z,100.00
2019-05-11T22:18:45.361Z,100.00
2019-05-11T22:21:51.787Z,100.00
2019-05-11T22:24:58.545Z,100.00
2019-05-11T22:28:08.400Z,100.00
2019-05-11T22:31:14.494Z,100.00
2019-05-11T22:34:21.069Z,100.00
2019-05-11T22:37:27.820Z,100.00
2019-05-11T22:40:34.350Z,100.00
2019-05-11T22:43:40.929Z,100.00
2019-05-11T22:46:47.857Z,100.00
2019-05-11T22:49:54.457Z,100.00
2019-05-11T22:53:01.439Z,100.00
2019-05-11T22:56:07.915Z,100.00
2019-05-11T22:59:15.273Z,100.00
2019-05-11T23:02:21.763Z,100.00
2019-05-11T23:05:29.937Z,100.00
2019-05-11T23:08:38.108Z,100.00
2019-05-11T23:11:45.462Z,100.00
2019-05-11T23:15:09.569Z,100.00
2019-05-11T23:18:17.995Z,100.00
2019-05-11T23:21:24.263Z,100.00
2019-05-11T23:24:30.761Z,100.00
2019-05-11T23:27:39.285Z,100.00
2019-05-11T23:30:47.454Z,100.00
2019-05-11T23:33:53.649Z,100.00
2019-05-11T23:37:00.181Z,100.00
2019-05-11T23:40:09.151Z,100.00
2019-05-11T23:43:15.318Z,100.00
2019-05-11T23:46:21.822Z,100.00
2019-05-11T23:49:28.356Z,100.00
2019-05-11T23:52:34.918Z,100.00
2019-05-11T23:55:41.780Z,100.00
2019-05-11T23:58:48.409Z,100.00
